BKPR/PRN METAR and TAF weather

Enter ICAO airport designator
Station Type Date Time Source
BKPR METAR 2018/04/26 15:00 UTC NOAA

BKPR 261500Z VRB03KT 9999 FEW030TCU 27/M00 Q1012 NOSIG


Station Type Date Time Source
BKPR Decoded METAR 2018/04/26 15:00 UTC NOAA

Station name not available
Apr 26, 2018 - 11:00 AM EDT / 2018.04.26 1500 UTC
Wind: Variable at 3 MPH (3 KT):0
Visibility: greater than 7 mile(s):0
Sky conditions: mostly clear
Weather: Towering cumulus clouds observed
Temperature: 80 F (27 C)
Dew Point: 32 F (0 C)
Relative Humidity: 17%
Pressure (altimeter): 29.88 in. Hg (1012 hPa)
ob: BKPR 261500Z VRB03KT 9999 FEW030TCU 27/M00 Q1012 NOSIG
cycle: 15

Station Type Date Time Source
BKPR TAF 2018/04/26 12:30 UTC NOAA

TAF BKPR 261130Z 2612/2712 VRB05KT 9999 FEW050 PROB30
TEMPO 2613/2618 VRB15KT TS FEW030CB


Example: see airport list